createdAt,value
2018-08-22T00:01:03.890Z,5.03
2018-08-22T00:03:33.351Z,4.80
2018-08-22T00:06:02.809Z,4.57
2018-08-22T00:08:37.640Z,5.17
2018-08-22T00:11:07.037Z,5.07
2018-08-22T00:13:36.882Z,5.40
2018-08-22T00:16:06.637Z,4.73
2018-08-22T00:18:36.875Z,5.43
2018-08-22T00:21:06.913Z,5.17
2018-08-22T00:23:37.772Z,5.33
2018-08-22T00:26:07.188Z,5.33
2018-08-22T00:28:36.908Z,4.80
2018-08-22T00:31:06.334Z,4.70
2018-08-22T00:33:35.777Z,5.20
2018-08-22T00:36:05.169Z,4.63
2018-08-22T00:38:35.476Z,4.67
2018-08-22T00:41:05.501Z,4.70
2018-08-22T00:43:35.380Z,4.77
2018-08-22T00:46:04.792Z,4.80
2018-08-22T00:48:34.200Z,5.07
2018-08-22T00:51:05.780Z,5.03
2018-08-22T00:53:35.199Z,5.23
2018-08-22T00:56:04.653Z,4.70
2018-08-22T00:58:34.074Z,4.70
2018-08-22T01:01:03.940Z,5.07
2018-08-22T01:03:33.356Z,5.30
2018-08-22T01:06:02.741Z,5.30
2018-08-22T01:08:33.344Z,5.13
2018-08-22T01:11:03.256Z,5.43
2018-08-22T01:13:32.664Z,4.93
2018-08-22T01:16:02.120Z,4.93
2018-08-22T01:18:31.523Z,5.30
2018-08-22T01:21:01.277Z,5.60
2018-08-22T01:23:30.643Z,5.27
2018-08-22T01:26:00.044Z,5.00
2018-08-22T01:28:29.987Z,5.23
2018-08-22T01:30:59.360Z,5.30
2018-08-22T01:33:36.064Z,5.00
2018-08-22T01:36:05.460Z,5.13
2018-08-22T01:38:34.876Z,5.33
2018-08-22T01:41:04.780Z,5.47
2018-08-22T01:43:34.160Z,4.93
2018-08-22T01:46:03.567Z,4.33
2018-08-22T01:48:32.994Z,4.87
2018-08-22T01:51:02.819Z,4.83
2018-08-22T01:53:32.223Z,5.00
2018-08-22T01:56:01.630Z,4.77
2018-08-22T01:58:31.053Z,4.43
2018-08-22T02:01:00.429Z,4.70
2018-08-22T02:03:30.370Z,4.63
2018-08-22T02:05:59.795Z,4.60
2018-08-22T02:08:29.280Z,5.07
2018-08-22T02:10:58.700Z,5.47
2018-08-22T02:13:28.429Z,4.93
2018-08-22T02:15:57.812Z,4.53
2018-08-22T02:18:27.200Z,4.90
2018-08-22T02:20:58.840Z,4.37
2018-08-22T02:23:28.274Z,4.60
2018-08-22T02:25:57.685Z,4.10
2018-08-22T02:28:27.079Z,4.77
2018-08-22T02:30:56.854Z,4.80
2018-08-22T02:33:26.335Z,4.83
2018-08-22T02:35:55.754Z,4.77
2018-08-22T02:38:26.223Z,5.27
2018-08-22T02:40:57.925Z,4.47
2018-08-22T02:43:27.386Z,4.87
2018-08-22T02:45:56.847Z,5.00
2018-08-22T02:48:26.238Z,4.97
2018-08-22T02:50:56.319Z,4.90
2018-08-22T02:53:25.712Z,5.23
2018-08-22T02:55:55.164Z,5.30
2018-08-22T02:58:27.069Z,5.43
2018-08-22T03:00:56.879Z,5.53
2018-08-22T03:03:28.194Z,5.77
2018-08-22T03:05:59.238Z,6.00
2018-08-22T03:08:29.247Z,5.70
2018-08-22T03:10:58.646Z,5.33
2018-08-22T03:13:29.842Z,5.70
2018-08-22T03:15:59.587Z,5.60
2018-08-22T03:18:28.961Z,5.57
2018-08-22T03:20:58.834Z,5.50
2018-08-22T03:23:28.224Z,5.33
2018-08-22T03:25:57.612Z,5.73
2018-08-22T03:28:27.020Z,6.20
2018-08-22T03:30:56.891Z,5.77
2018-08-22T03:33:26.283Z,6.20
2018-08-22T03:35:56.198Z,5.73
2018-08-22T03:38:25.619Z,5.97
2018-08-22T03:40:55.030Z,5.83
2018-08-22T03:43:25.655Z,6.07
2018-08-22T03:45:55.653Z,5.30
2018-08-22T03:48:25.018Z,5.17
2018-08-22T03:50:56.174Z,5.40
2018-08-22T03:53:25.625Z,5.70
2018-08-22T03:55:55.395Z,5.83
2018-08-22T03:58:24.787Z,6.27
2018-08-22T04:00:54.515Z,5.23
2018-08-22T04:03:23.919Z,5.27
2018-08-22T04:05:53.304Z,5.50
2018-08-22T04:08:22.720Z,5.37
2018-08-22T04:10:52.454Z,5.83
2018-08-22T04:13:21.883Z,5.80
2018-08-22T04:15:51.594Z,5.53
2018-08-22T04:18:21.016Z,5.67
2018-08-22T04:20:50.504Z,5.47
2018-08-22T04:23:20.507Z,6.10
2018-08-22T04:26:01.495Z,6.00
2018-08-22T04:28:31.143Z,5.80
2018-08-22T04:31:00.597Z,5.57
2018-08-22T04:33:30.962Z,5.53
2018-08-22T04:36:00.361Z,5.80
2018-08-22T04:38:30.321Z,5.53
2018-08-22T04:41:00.828Z,5.80
2018-08-22T04:43:30.226Z,5.20
2018-08-22T04:45:59.911Z,6.00
2018-08-22T04:48:29.317Z,5.87
2018-08-22T04:50:58.773Z,6.30
2018-08-22T04:53:28.195Z,5.73
2018-08-22T04:55:57.755Z,5.63
2018-08-22T04:58:27.959Z,5.50
2018-08-22T05:00:57.380Z,6.03
2018-08-22T05:03:26.805Z,5.30
2018-08-22T05:05:56.213Z,6.03
2018-08-22T05:08:27.223Z,5.73
2018-08-22T05:10:56.603Z,5.53
2018-08-22T05:13:26.009Z,5.70
2018-08-22T05:15:55.865Z,5.23
2018-08-22T05:18:25.268Z,5.50
2018-08-22T05:20:55.655Z,5.97
2018-08-22T05:23:26.083Z,5.87
2018-08-22T05:25:55.511Z,5.60
2018-08-22T05:28:25.734Z,5.37
2018-08-22T05:31:06.244Z,5.43
2018-08-22T05:33:35.619Z,5.47
2018-08-22T05:36:05.068Z,5.23
2018-08-22T05:38:34.853Z,5.47
2018-08-22T05:41:04.281Z,5.57
2018-08-22T05:43:33.791Z,5.00
2018-08-22T05:46:04.212Z,5.57
2018-08-22T05:48:33.631Z,5.03
2018-08-22T05:51:03.067Z,5.27
2018-08-22T05:53:32.461Z,5.13
2018-08-22T05:59:34.122Z,4.70
2018-08-22T06:02:03.576Z,5.37
2018-08-22T06:04:33.624Z,5.00
2018-08-22T06:07:03.547Z,5.03
2018-08-22T06:09:32.983Z,5.13
2018-08-22T06:12:03.035Z,4.40
2018-08-22T06:14:33.390Z,4.87
2018-08-22T06:17:05.135Z,4.70
2018-08-22T06:19:34.504Z,4.97
2018-08-22T06:28:49.365Z,4.30
2018-08-22T06:31:18.831Z,4.20
2018-08-22T06:33:50.210Z,4.50
2018-08-22T06:36:19.635Z,4.07
2018-08-22T06:38:49.944Z,4.10
2018-08-22T06:41:20.702Z,4.10
2018-08-22T06:43:50.106Z,3.80
2018-08-22T06:46:20.030Z,3.80
2018-08-22T06:48:49.465Z,3.90
2018-08-22T06:51:18.873Z,3.93
2018-08-22T06:53:48.629Z,4.10
2018-08-22T06:56:18.003Z,4.20
2018-08-22T06:58:47.573Z,4.17
2018-08-22T07:01:17.001Z,4.20
2018-08-22T07:03:46.838Z,3.63
2018-08-22T07:06:16.223Z,3.50
2018-08-22T07:08:45.621Z,3.50
2018-08-22T07:11:15.973Z,3.73
2018-08-22T07:13:45.343Z,3.80
2018-08-22T07:16:15.046Z,3.77
2018-08-22T07:18:44.442Z,4.77
2018-08-22T07:21:13.961Z,3.40
2018-08-22T07:23:43.666Z,3.67
2018-08-22T07:26:13.115Z,4.17
2018-08-22T07:28:44.462Z,3.97
2018-08-22T07:31:14.120Z,3.83
2018-08-22T07:33:44.237Z,4.40
2018-08-22T07:36:14.349Z,4.07
2018-08-22T07:38:43.800Z,3.57
2018-08-22T07:41:13.219Z,4.40
2018-08-22T07:43:42.917Z,4.40
2018-08-22T07:46:14.122Z,4.27
2018-08-22T07:48:45.120Z,4.43
2018-08-22T07:54:48.638Z,4.40
2018-08-22T07:57:21.275Z,4.47
2018-08-22T07:59:52.127Z,4.07
2018-08-22T08:02:21.577Z,5.13
2018-08-22T08:04:51.442Z,4.63
2018-08-22T08:07:20.845Z,4.83
2018-08-22T08:09:50.256Z,4.67
2018-08-22T08:12:23.347Z,4.43
2018-08-22T08:14:57.774Z,4.67
2018-08-22T08:17:27.296Z,4.67
2018-08-22T08:19:56.700Z,4.83
2018-08-22T08:22:26.557Z,4.83
2018-08-22T08:24:55.943Z,4.63
2018-08-22T08:27:26.042Z,4.83
2018-08-22T08:29:55.446Z,4.67
2018-08-22T08:32:25.352Z,4.93
2018-08-22T08:34:55.976Z,4.23
2018-08-22T08:37:25.473Z,4.70
2018-08-22T08:39:55.033Z,5.07
2018-08-22T08:42:24.518Z,4.50
2018-08-22T08:44:53.912Z,4.70
2018-08-22T08:47:25.654Z,4.23
2018-08-22T08:49:55.395Z,4.57
2018-08-22T08:52:24.833Z,4.57
2018-08-22T08:54:55.357Z,5.17
2018-08-22T08:57:24.939Z,5.23
2018-08-22T08:59:56.832Z,5.13
2018-08-22T09:02:27.067Z,4.77
2018-08-22T09:04:56.933Z,5.33
2018-08-22T09:07:26.893Z,5.33
2018-08-22T09:09:56.327Z,5.33
2018-08-22T09:12:27.129Z,4.80
2018-08-22T09:14:57.578Z,5.13
2018-08-22T09:17:28.733Z,5.30
2018-08-22T09:19:58.196Z,4.77
2018-08-22T09:22:27.672Z,4.67
2018-08-22T09:24:58.586Z,4.73
2018-08-22T09:27:28.283Z,4.47
2018-08-22T09:29:58.591Z,4.27
2018-08-22T09:32:28.634Z,5.00
2018-08-22T09:34:59.947Z,4.57
2018-08-22T09:37:31.802Z,4.50
2018-08-22T09:40:02.692Z,5.20
2018-08-22T09:42:33.075Z,4.43
2018-08-22T09:45:03.870Z,4.43
2018-08-22T09:47:35.971Z,4.73
2018-08-22T09:50:06.274Z,4.47
2018-08-22T09:52:35.893Z,4.70
2018-08-22T09:55:07.225Z,5.67
2018-08-22T09:57:37.381Z,4.43
2018-08-22T10:00:08.918Z,4.90
2018-08-22T10:02:38.944Z,4.37
2018-08-22T10:05:10.100Z,4.60
2018-08-22T10:07:39.459Z,4.20
2018-08-22T10:10:10.021Z,4.57
2018-08-22T10:12:40.427Z,4.53
2018-08-22T10:15:09.858Z,4.90
2018-08-22T10:17:39.266Z,4.63
2018-08-22T10:20:10.630Z,4.80
2018-08-22T10:22:40.066Z,4.53
2018-08-22T10:25:11.054Z,4.70
2018-08-22T10:27:41.455Z,4.67
2018-08-22T10:30:14.857Z,4.43
2018-08-22T10:32:44.545Z,4.40
2018-08-22T10:35:16.444Z,4.00
2018-08-22T10:37:45.891Z,4.53
2018-08-22T10:40:16.584Z,4.53
2018-08-22T10:42:46.895Z,4.63
2018-08-22T10:45:21.843Z,4.10
2018-08-22T10:47:52.040Z,4.00
2018-08-22T10:50:22.121Z,4.20
2018-08-22T10:52:51.814Z,4.30
2018-08-22T10:55:23.645Z,4.23
2018-08-22T10:57:53.756Z,4.43
2018-08-22T11:00:23.669Z,4.20
2018-08-22T11:02:56.082Z,4.40
2018-08-22T11:05:25.541Z,4.00
2018-08-22T11:08:03.595Z,4.33
2018-08-22T11:10:33.094Z,3.97
2018-08-22T11:13:03.470Z,4.03
2018-08-22T11:15:33.435Z,4.23
2018-08-22T11:18:03.727Z,3.60
2018-08-22T11:20:39.431Z,3.70
2018-08-22T11:23:20.508Z,3.97
2018-08-22T11:26:00.910Z,4.17
2018-08-22T11:28:42.427Z,3.90
2018-08-22T11:31:22.846Z,3.90
2018-08-22T11:34:04.203Z,4.20
2018-08-22T11:36:33.346Z,3.80
2018-08-22T11:39:04.481Z,3.60
2018-08-22T11:41:36.601Z,3.67
2018-08-22T11:44:09.422Z,4.10
2018-08-22T11:46:39.393Z,3.60
2018-08-22T11:49:10.627Z,3.60
2018-08-22T11:51:40.058Z,3.80
2018-08-22T11:54:09.705Z,3.90
2018-08-22T11:56:39.155Z,3.73
2018-08-22T11:59:08.956Z,3.70
2018-08-22T12:01:39.326Z,4.00
2018-08-22T12:04:09.826Z,3.97
2018-08-22T12:06:39.336Z,3.87
2018-08-22T12:09:15.313Z,4.53
2018-08-22T12:11:45.173Z,4.00
2018-08-22T12:14:15.979Z,4.23
2018-08-22T12:16:46.807Z,4.07
2018-08-22T12:19:17.913Z,4.10
2018-08-22T12:21:50.357Z,3.90
2018-08-22T12:24:21.053Z,3.93
2018-08-22T12:26:51.471Z,3.83
2018-08-22T12:29:21.706Z,3.67
2018-08-22T12:31:53.054Z,4.03
2018-08-22T12:34:23.415Z,3.77
2018-08-22T12:36:52.878Z,3.83
2018-08-22T12:39:40.827Z,3.67
2018-08-22T12:42:24.175Z,4.03
2018-08-22T12:44:57.242Z,3.70
2018-08-22T12:47:26.650Z,3.70
2018-08-22T12:49:58.327Z,3.60
2018-08-22T12:52:28.335Z,3.67
2018-08-22T12:54:57.809Z,3.47
2018-08-22T12:57:34.027Z,3.67
2018-08-22T13:00:03.434Z,3.53
2018-08-22T13:02:32.830Z,3.80
2018-08-22T13:05:04.137Z,4.13
2018-08-22T13:07:33.579Z,4.37
2018-08-22T13:10:04.150Z,3.87
2018-08-22T13:12:34.131Z,3.97
2018-08-22T13:15:08.402Z,4.00
2018-08-22T13:17:38.610Z,3.70
2018-08-22T13:20:08.126Z,3.87
2018-08-22T13:22:37.550Z,3.57
2018-08-22T13:25:07.911Z,4.30
2018-08-22T13:27:37.343Z,4.00
2018-08-22T13:30:07.403Z,3.90
2018-08-22T13:32:43.100Z,3.97
2018-08-22T13:35:15.000Z,4.17
2018-08-22T13:37:45.443Z,4.33
2018-08-22T13:40:15.694Z,4.40
2018-08-22T13:42:45.093Z,4.03
2018-08-22T13:45:14.511Z,3.70
2018-08-22T13:47:45.580Z,3.80
2018-08-22T13:50:15.045Z,3.97
2018-08-22T13:52:46.897Z,3.90
2018-08-22T13:55:17.265Z,4.00
2018-08-22T13:57:47.369Z,3.80
2018-08-22T14:00:19.287Z,4.60
2018-08-22T14:02:48.714Z,4.17
2018-08-22T14:05:19.283Z,3.87
2018-08-22T14:07:52.064Z,3.97
2018-08-22T14:10:23.014Z,4.23
2018-08-22T14:12:52.651Z,3.93
2018-08-22T14:15:24.509Z,4.27
2018-08-22T14:17:53.940Z,3.80
2018-08-22T14:20:23.315Z,3.90
2018-08-22T14:22:52.676Z,4.30
2018-08-22T14:25:22.097Z,3.97
2018-08-22T14:27:52.686Z,4.10
2018-08-22T14:30:24.002Z,3.70
2018-08-22T14:32:53.767Z,3.67
2018-08-22T14:35:23.167Z,4.10
2018-08-22T14:37:53.990Z,3.80
2018-08-22T14:40:23.395Z,3.20
2018-08-22T14:42:56.125Z,3.83
2018-08-22T14:45:38.670Z,3.83
2018-08-22T14:48:08.131Z,3.70
2018-08-22T14:50:38.555Z,3.60
2018-08-22T14:53:10.314Z,4.03
2018-08-22T14:55:39.925Z,4.03
2018-08-22T14:58:09.812Z,4.03
2018-08-22T15:00:40.399Z,3.93
2018-08-22T15:03:15.878Z,4.03
2018-08-22T15:05:48.434Z,4.33
2018-08-22T15:08:24.376Z,3.57
2018-08-22T15:10:54.571Z,4.30
2018-08-22T15:13:24.067Z,4.13
2018-08-22T15:15:57.047Z,4.13
2018-08-22T15:18:26.477Z,4.33
2018-08-22T15:20:58.508Z,3.50
2018-08-22T15:23:30.909Z,4.23
2018-08-22T15:26:02.077Z,3.97
2018-08-22T15:28:31.509Z,4.33
2018-08-22T15:31:02.854Z,4.07
2018-08-22T15:33:32.534Z,3.67
2018-08-22T15:36:03.248Z,3.70
2018-08-22T15:38:34.743Z,3.97
2018-08-22T15:41:05.827Z,4.27
2018-08-22T15:43:38.299Z,3.77
2018-08-22T15:46:07.658Z,4.17
2018-08-22T15:48:38.834Z,3.63
2018-08-22T15:51:10.642Z,3.77
2018-08-22T15:53:41.534Z,3.73
2018-08-22T15:56:14.682Z,3.90
2018-08-22T15:58:44.566Z,3.80
2018-08-22T16:01:18.477Z,4.07
2018-08-22T16:03:49.295Z,3.80
2018-08-22T16:06:18.715Z,4.10
2018-08-22T16:08:49.468Z,4.17
2018-08-22T16:11:20.726Z,4.20
2018-08-22T16:13:50.985Z,3.60
2018-08-22T16:16:21.210Z,4.20
2018-08-22T16:18:52.593Z,3.80
2018-08-22T16:21:28.700Z,4.13
2018-08-22T16:23:58.161Z,3.90
2018-08-22T16:26:28.244Z,3.90
2018-08-22T16:29:02.747Z,3.90
2018-08-22T16:31:38.663Z,3.93
2018-08-22T16:34:10.500Z,4.10
2018-08-22T16:36:41.891Z,4.00
2018-08-22T16:39:14.272Z,4.10
2018-08-22T16:41:43.701Z,4.33
2018-08-22T16:44:15.064Z,4.13
2018-08-22T16:46:45.249Z,4.23
2018-08-22T16:49:19.081Z,4.33
2018-08-22T16:51:51.619Z,3.73
2018-08-22T16:54:24.050Z,3.77
2018-08-22T16:56:56.626Z,4.33
2018-08-22T16:59:26.642Z,4.50
2018-08-22T17:01:56.108Z,4.13
2018-08-22T17:04:27.013Z,4.03
2018-08-22T17:07:06.581Z,3.90
2018-08-22T17:09:37.945Z,4.20
2018-08-22T17:12:11.122Z,3.97
2018-08-22T17:14:40.481Z,3.77
2018-08-22T17:17:11.719Z,3.60
2018-08-22T17:19:42.391Z,3.97
2018-08-22T17:22:14.124Z,4.40
2018-08-22T17:24:44.057Z,4.00
2018-08-22T17:27:13.696Z,3.67
2018-08-22T17:29:45.676Z,4.10
2018-08-22T17:32:15.825Z,4.20
2018-08-22T17:34:45.300Z,3.73
2018-08-22T17:37:16.283Z,3.77
2018-08-22T17:39:45.792Z,4.00
2018-08-22T17:42:15.154Z,4.27
2018-08-22T17:44:45.429Z,4.10
2018-08-22T17:47:18.176Z,4.17
2018-08-22T17:50:18.584Z,4.03
2018-08-22T17:52:48.958Z,4.03
2018-08-22T17:55:18.538Z,3.37
2018-08-22T17:57:48.824Z,3.77
2018-08-22T18:00:19.591Z,4.07
2018-08-22T18:02:50.038Z,3.80
2018-08-22T18:05:21.802Z,3.87
2018-08-22T18:07:52.979Z,3.90
2018-08-22T18:10:22.676Z,3.93
2018-08-22T18:12:53.781Z,3.87
2018-08-22T18:15:27.905Z,4.20
2018-08-22T18:18:00.704Z,3.67
2018-08-22T18:20:31.631Z,4.23
2018-08-22T18:23:02.352Z,4.23
2018-08-22T18:25:31.738Z,4.27
2018-08-22T18:28:06.502Z,4.00
2018-08-22T18:30:37.223Z,4.00
2018-08-22T18:33:08.724Z,4.13
2018-08-22T18:35:49.302Z,4.30
2018-08-22T18:38:19.733Z,4.40
2018-08-22T18:41:00.513Z,4.50
2018-08-22T18:43:33.919Z,3.83
2018-08-22T18:46:08.268Z,4.13
2018-08-22T18:48:39.311Z,4.20
2018-08-22T18:51:14.461Z,3.83
2018-08-22T18:53:44.454Z,3.87
2018-08-22T18:56:18.380Z,4.10
2018-08-22T18:58:47.765Z,3.90
2018-08-22T19:01:20.864Z,3.50
2018-08-22T19:03:51.453Z,4.30
2018-08-22T19:06:24.614Z,4.00
2018-08-22T19:08:57.502Z,4.20
2018-08-22T19:11:27.884Z,4.03
2018-08-22T19:14:01.266Z,4.20
2018-08-22T19:16:49.096Z,4.33
2018-08-22T19:19:24.016Z,3.93
2018-08-22T19:21:59.210Z,4.30
2018-08-22T19:24:28.630Z,3.97
2018-08-22T19:26:59.795Z,4.13
2018-08-22T19:29:33.522Z,4.07
2018-08-22T19:32:02.942Z,4.13
2018-08-22T19:34:34.565Z,4.30
2018-08-22T19:37:04.537Z,3.80
2018-08-22T19:39:35.215Z,3.77
2018-08-22T19:42:06.834Z,3.97
2018-08-22T19:44:41.812Z,4.23
2018-08-22T19:47:12.062Z,3.73
2018-08-22T19:49:42.371Z,3.53
2018-08-22T19:52:15.323Z,4.23
2018-08-22T19:54:46.523Z,4.03
2018-08-22T19:57:22.277Z,4.10
2018-08-22T19:59:53.414Z,4.43
2018-08-22T20:02:27.774Z,3.87
2018-08-22T20:04:58.120Z,4.07
2018-08-22T20:07:30.285Z,4.10
2018-08-22T20:10:00.087Z,3.80
2018-08-22T20:12:40.867Z,4.33
2018-08-22T20:15:10.494Z,4.07
2018-08-22T20:17:43.507Z,4.20
2018-08-22T20:20:13.651Z,4.17
2018-08-22T20:22:47.192Z,4.07
2018-08-22T20:25:18.018Z,4.67
2018-08-22T20:27:49.880Z,4.40
2018-08-22T20:30:26.314Z,4.60
2018-08-22T20:33:00.815Z,4.20
2018-08-22T20:35:32.366Z,4.20
2018-08-22T20:38:09.387Z,4.37
2018-08-22T20:40:38.920Z,4.27
2018-08-22T20:43:17.989Z,4.17
2018-08-22T20:45:47.543Z,4.50
2018-08-22T20:48:21.747Z,3.90
2018-08-22T20:50:51.169Z,4.27
2018-08-22T20:53:21.718Z,4.40
2018-08-22T20:55:51.144Z,4.53
2018-08-22T20:58:25.173Z,4.37
2018-08-22T21:00:54.652Z,4.57
2018-08-22T21:03:24.444Z,4.47
2018-08-22T21:05:55.263Z,4.53
2018-08-22T21:08:26.218Z,4.83
2018-08-22T21:10:55.703Z,4.30
2018-08-22T21:13:29.756Z,5.13
2018-08-22T21:16:00.141Z,4.30
2018-08-22T21:18:31.635Z,4.57
2018-08-22T21:21:01.991Z,4.47
2018-08-22T21:23:32.262Z,4.83
2018-08-22T21:26:04.416Z,4.60
2018-08-22T21:28:39.590Z,4.90
2018-08-22T21:31:09.848Z,5.00
2018-08-22T21:33:39.230Z,4.43
2018-08-22T21:36:09.972Z,4.90
2018-08-22T21:38:40.527Z,4.40
2018-08-22T21:41:13.810Z,5.00
2018-08-22T21:43:47.541Z,4.63
2018-08-22T21:46:17.254Z,4.90
2018-08-22T21:48:47.162Z,4.63
2018-08-22T21:51:17.444Z,5.00
2018-08-22T21:53:48.110Z,5.27
2018-08-22T21:56:37.072Z,5.13
2018-08-22T21:59:06.614Z,5.43
2018-08-22T22:01:47.346Z,5.20
2018-08-22T22:04:21.214Z,5.10
2018-08-22T22:06:51.269Z,4.77
2018-08-22T22:09:21.746Z,5.23
2018-08-22T22:11:58.547Z,5.03
2018-08-22T22:14:31.666Z,4.90
2018-08-22T22:17:02.682Z,4.63
2018-08-22T22:19:39.472Z,5.07
2018-08-22T22:22:08.887Z,5.43
2018-08-22T22:24:52.743Z,5.40
2018-08-22T22:27:22.285Z,5.20
2018-08-22T22:29:58.280Z,5.57
2018-08-22T22:32:27.684Z,5.57
2018-08-22T22:34:58.829Z,5.20
2018-08-22T22:37:29.726Z,5.50
2018-08-22T22:40:02.828Z,5.23
2018-08-22T22:42:32.296Z,5.30
2018-08-22T22:45:02.898Z,5.00
2018-08-22T22:47:33.436Z,5.30
2018-08-22T22:50:05.454Z,5.60
2018-08-22T22:52:43.699Z,5.53
2018-08-22T22:55:14.274Z,4.90
2018-08-22T22:57:44.947Z,5.70
2018-08-22T23:00:15.660Z,5.57
2018-08-22T23:02:46.946Z,5.07
2018-08-22T23:05:16.873Z,5.70
2018-08-22T23:07:46.335Z,5.53
2018-08-22T23:10:16.143Z,5.80
2018-08-22T23:12:48.156Z,5.37
2018-08-22T23:15:23.533Z,5.57
2018-08-22T23:17:55.669Z,5.90
2018-08-22T23:20:49.493Z,5.33
2018-08-22T23:23:29.229Z,5.63
2018-08-22T23:26:05.966Z,5.50
2018-08-22T23:28:35.535Z,4.93
2018-08-22T23:31:05.699Z,4.87
2018-08-22T23:33:35.130Z,5.20
2018-08-22T23:36:05.859Z,5.50
2018-08-22T23:38:38.218Z,5.10
2018-08-22T23:41:07.662Z,4.60
2018-08-22T23:43:50.415Z,5.40
2018-08-22T23:46:19.930Z,5.03
2018-08-22T23:48:57.659Z,4.40
2018-08-22T23:51:29.093Z,4.73
2018-08-22T23:54:01.899Z,5.00
2018-08-22T23:56:33.051Z,4.83
2018-08-22T23:59:04.381Z,5.00
